Terminal Aerodrome Forecast
Issued by NWS Charleston, WV

Home | Current Version | Previous Version | Text Only | Print | Product List | Glossary On
Versions: 1 2 3 4 5 6 7 8 9 10 11 12 13 14 15 16 17 18 19 20 21 22 23 24 25 26
000
FTUS41 KRLX 230524
TAFBKW
TAF
KBKW 230524Z 2306/2406 11019G31KT 6SM -RA OVC014
     FM231000 09017G27KT 4SM -RA OVC009
     FM231500 06007KT 2SM -RA OVC008
     FM232100 02007KT 3SM -RA OVC008
     FM240100 33008KT 3SM -RA OVC005
     FM240500 32011G18KT 3SM -RASN OVC004=

USA.gov is the U.S. government's official web portal to all federal, state and local government web resources and services.